ETNL

Rostock-Laage Airport

Rostock, Germany
METAR ETNL 150027Z 25005KT 9999 BKN009 BKN050 17/16 Q1013 GRN
Observed Flight Rules
Aug-15 @ 00:27 UTC (40 minutes ago) Instrument Flight Rules
Wind Visibility Clouds
250° at 5 knots 10,000+ meters
  • Broken at 900' AGL
  • Broken at 5,000' AGL
Temperatures Readings
Current 17°C / 63°F
Dewpoint 16°C / 61°F
Humidity 94%
Altimeter 29.91" Hg
Pressure 1013 hPa
Elevation 40
METAR ETNL 150027Z 25005KT 9999 BKN009 BKN050 17/16 Q1013 GRN
Observed Flight Rules
Aug-15 @ 00:27 UTC
(40 minutes ago)
IFR
Wind Visibility
250° at 5 knots 10,000+ meters
Clouds
  • Broken at 900' AGL
  • Broken at 5,000' AGL
Temperature Dewpoint
17°C / 63°F 16°C / 61°F
Humidity Altimeter Pressure
94% 29.91" Hg 1013 hPa